Time;durP1;ratioP1;P1;durP2;ratioP2;P2;SDS_P1;SDS_P2;PMS_P1;PMS_P2;Temp;Humidity;BMP_temperature;BMP_pressure;BME280_temperature;BME280_humidity;BME280_pressure;Samples;Min_cycle;Max_cycle;Signal;HPM_P1;HPM_P2
2023/06/09 00:00:18;;;;;;;3.92;3.40;;;25.30;39.10;;;;;;5048808;27;45260;-73
2023/06/09 00:02:47;;;;;;;4.05;3.20;;;25.30;39.20;;;;;;5044016;28;46191;-74
2023/06/09 00:05:15;;;;;;;3.60;3.30;;;25.30;39.30;;;;;;5050145;28;45452;-74
2023/06/09 00:07:42;;;;;;;4.20;3.50;;;25.20;39.40;;;;;;5059124;28;45495;-74
2023/06/09 00:10:12;;;;;;;3.47;3.17;;;25.30;39.50;;;;;;5046346;28;45482;-74
2023/06/09 00:12:39;;;;;;;3.53;3.22;;;25.20;39.40;;;;;;5045313;28;45352;-74
2023/06/09 00:15:10;;;;;;;3.83;3.40;;;25.20;39.50;;;;;;5051434;28;45554;-75
2023/06/09 00:17:38;;;;;;;3.67;3.38;;;25.20;39.50;;;;;;5061561;28;45335;-74
2023/06/09 00:20:08;;;;;;;3.80;3.28;;;25.20;39.60;;;;;;5061703;28;45419;-73
2023/06/09 00:22:42;;;;;;;4.93;3.20;;;25.20;39.80;;;;;;5045073;28;45467;-73
2023/06/09 00:25:10;;;;;;;3.70;3.30;;;25.20;40.10;;;;;;5046013;28;45389;-73
2023/06/09 00:27:37;;;;;;;3.65;3.30;;;25.10;40.20;;;;;;5046640;28;45490;-73
2023/06/09 00:30:04;;;;;;;3.88;3.42;;;25.10;40.30;;;;;;5046352;28;45307;-73
2023/06/09 00:32:32;;;;;;;3.45;3.15;;;25.10;41.20;;;;;;5044855;28;45370;-74
2023/06/09 00:34:59;;;;;;;3.75;3.45;;;25.00;40.90;;;;;;5045343;28;45467;-73
2023/06/09 00:37:26;;;;;;;3.80;3.38;;;24.90;40.90;;;;;;5045656;28;45334;-74
2023/06/09 00:39:53;;;;;;;4.03;3.60;;;24.80;41.10;;;;;;5045618;28;45475;-72
2023/06/09 00:42:20;;;;;;;3.58;3.28;;;24.80;41.20;;;;;;5062926;28;46342;-72
2023/06/09 00:44:46;;;;;;;4.28;3.30;;;24.70;41.90;;;;;;5064262;28;45305;-74
2023/06/09 00:47:13;;;;;;;5.28;3.88;;;24.70;41.60;;;;;;5048152;28;45337;-72
2023/06/09 00:49:43;;;;;;;3.97;3.55;;;24.70;41.80;;;;;;5044999;28;45428;-74
2023/06/09 00:52:10;;;;;;;6.45;3.67;;;24.60;41.90;;;;;;5046245;28;45439;-73
2023/06/09 00:54:38;;;;;;;3.78;3.38;;;24.50;42.00;;;;;;5044491;28;45419;-74
2023/06/09 00:57:07;;;;;;;4.03;3.47;;;24.50;42.10;;;;;;5060792;28;45374;-74
2023/06/09 00:59:34;;;;;;;4.50;3.30;;;24.40;42.10;;;;;;5045553;28;45553;-74
2023/06/09 01:02:00;;;;;;;3.83;3.50;;;24.40;42.10;;;;;;5056302;27;45332;-73
2023/06/09 01:04:27;;;;;;;4.10;3.30;;;24.40;42.30;;;;;;5044476;28;45412;-73
2023/06/09 01:07:00;;;;;;;5.82;4.25;;;24.40;42.20;;;;;;5046519;28;45308;-73
2023/06/09 01:09:31;;;;;;;3.60;3.05;;;24.40;42.20;;;;;;5053767;28;45493;-72
2023/06/09 01:12:03;;;;;;;3.85;3.38;;;24.40;42.20;;;;;;5047917;28;45499;-73
2023/06/09 01:14:33;;;;;;;3.97;3.40;;;24.50;42.20;;;;;;5058980;28;45384;-74
2023/06/09 01:17:07;;;;;;;3.80;3.35;;;24.50;42.40;;;;;;5068171;28;45315;-73
2023/06/09 01:19:36;;;;;;;3.58;3.05;;;24.50;42.10;;;;;;5068496;28;45423;-73
2023/06/09 01:22:09;;;;;;;3.95;3.65;;;24.50;42.00;;;;;;5065659;28;45328;-73
2023/06/09 01:24:46;;;;;;;4.15;3.42;;;24.50;41.90;;;;;;5067362;28;45469;-74
2023/06/09 01:27:14;;;;;;;3.75;3.20;;;24.50;42.00;;;;;;5067489;28;45349;-72
2023/06/09 01:29:43;;;;;;;3.83;3.53;;;24.40;42.40;;;;;;5048017;28;45307;-74
2023/06/09 01:32:10;;;;;;;4.30;3.90;;;24.30;42.60;;;;;;5064743;28;46467;-74
2023/06/09 01:34:37;;;;;;;6.65;3.45;;;24.20;43.40;;;;;;5061921;28;45344;-74
2023/06/09 01:37:04;;;;;;;4.05;3.65;;;24.20;42.80;;;;;;5067895;28;45244;-73
2023/06/09 01:39:31;;;;;;;3.60;3.17;;;24.20;42.90;;;;;;5068180;28;45376;-74
2023/06/09 01:41:58;;;;;;;3.75;3.45;;;24.20;43.00;;;;;;5066734;28;46357;-74
2023/06/09 01:44:26;;;;;;;4.03;3.63;;;24.10;42.90;;;;;;5066892;28;45335;-74
2023/06/09 01:46:53;;;;;;;3.80;3.40;;;24.20;43.10;;;;;;5067770;28;45398;-75
2023/06/09 01:49:22;;;;;;;3.65;3.35;;;24.10;43.10;;;;;;5067707;28;45481;-74
2023/06/09 01:51:51;;;;;;;4.63;3.30;;;24.10;42.90;;;;;;5067260;28;45744;-74
2023/06/09 01:54:23;;;;;;;3.95;3.53;;;24.10;42.70;;;;;;5062544;28;45555;-74
2023/06/09 01:56:54;;;;;;;3.70;3.40;;;24.10;43.10;;;;;;5047427;28;45334;-72
2023/06/09 01:59:23;;;;;;;4.35;3.60;;;24.10;43.20;;;;;;5047716;28;45646;-73
2023/06/09 02:01:53;;;;;;;4.00;3.60;;;24.10;43.40;;;;;;5053803;28;45399;-74
2023/06/09 02:04:21;;;;;;;5.05;3.83;;;24.00;43.90;;;;;;5065467;28;45336;-72
2023/06/09 02:06:48;;;;;;;4.32;3.83;;;23.90;44.40;;;;;;5063101;28;45303;-74
2023/06/09 02:09:15;;;;;;;3.78;3.13;;;23.80;44.70;;;;;;5067118;28;45307;-72
2023/06/09 02:11:41;;;;;;;4.32;3.65;;;23.80;44.50;;;;;;5058386;28;45497;-74
2023/06/09 02:14:08;;;;;;;5.13;3.85;;;23.80;45.00;;;;;;5060814;28;45533;-75
2023/06/09 02:16:36;;;;;;;3.75;3.45;;;23.80;44.80;;;;;;5047168;28;45346;-70
2023/06/09 02:19:05;;;;;;;3.50;3.00;;;23.70;44.80;;;;;;5046941;28;45256;-72
2023/06/09 02:21:31;;;;;;;3.50;3.20;;;23.80;43.70;;;;;;5046994;28;47018;-72
2023/06/09 02:23:58;;;;;;;3.03;2.83;;;24.00;43.10;;;;;;5046984;28;45375;-73
2023/06/09 02:26:26;;;;;;;3.00;2.80;;;24.10;42.60;;;;;;5047051;28;45463;-73
2023/06/09 02:28:52;;;;;;;4.72;3.30;;;24.20;42.20;;;;;;5047268;28;45308;-73
2023/06/09 02:31:20;;;;;;;3.40;3.10;;;24.30;41.70;;;;;;5046878;28;45301;-73
2023/06/09 02:33:47;;;;;;;3.70;3.40;;;24.40;41.50;;;;;;5046799;28;45413;-73
2023/06/09 02:36:16;;;;;;;3.28;2.97;;;24.40;41.30;;;;;;5046933;28;45435;-73
2023/06/09 02:38:43;;;;;;;3.58;3.28;;;24.50;41.10;;;;;;5046863;28;45289;-73
2023/06/09 02:41:09;;;;;;;5.07;3.15;;;24.50;40.90;;;;;;5046640;28;48809;-73
2023/06/09 02:43:36;;;;;;;3.17;2.88;;;24.50;40.90;;;;;;5046626;28;45332;-73
2023/06/09 02:46:04;;;;;;;3.67;3.10;;;24.60;40.80;;;;;;5058387;28;45405;-73
2023/06/09 02:48:31;;;;;;;3.78;3.15;;;24.60;40.70;;;;;;5066973;28;45362;-73
2023/06/09 02:50:57;;;;;;;3.28;2.97;;;24.60;40.60;;;;;;5066542;28;45295;-73
2023/06/09 02:53:28;;;;;;;3.72;3.30;;;24.60;40.60;;;;;;5066679;28;45360;-73
2023/06/09 02:55:55;;;;;;;3.17;2.88;;;24.60;40.50;;;;;;5066756;28;45373;-73
2023/06/09 02:58:24;;;;;;;3.25;2.95;;;24.60;40.50;;;;;;5066889;28;45347;-73
2023/06/09 03:00:51;;;;;;;4.40;3.30;;;24.60;40.50;;;;;;5066753;28;47350;-73
2023/06/09 03:03:18;;;;;;;3.28;2.97;;;24.60;40.50;;;;;;5066188;28;45313;-73
2023/06/09 03:05:45;;;;;;;3.40;3.03;;;24.60;40.40;;;;;;5066706;28;45353;-73
2023/06/09 03:08:12;;;;;;;3.30;3.00;;;24.60;40.40;;;;;;5066668;28;45462;-73
2023/06/09 03:10:40;;;;;;;3.72;3.40;;;24.60;40.40;;;;;;5066145;28;45524;-74
2023/06/09 03:13:07;;;;;;;3.63;3.13;;;24.60;40.40;;;;;;5066412;28;45566;-73
2023/06/09 03:15:34;;;;;;;3.47;3.17;;;24.60;40.40;;;;;;5066267;28;45361;-73
2023/06/09 03:18:01;;;;;;;3.42;2.90;;;24.60;40.40;;;;;;5066449;28;45230;-73
2023/06/09 03:20:28;;;;;;;3.53;2.88;;;24.60;40.40;;;;;;5066161;28;45555;-73
2023/06/09 03:22:55;;;;;;;3.30;2.95;;;24.60;40.40;;;;;;5066407;28;45257;-73
2023/06/09 03:25:25;;;;;;;2.85;2.60;;;24.60;40.40;;;;;;5066474;28;45407;-73
2023/06/09 03:27:54;;;;;;;3.10;2.90;;;24.50;40.30;;;;;;5066385;28;45538;-73
2023/06/09 03:30:21;;;;;;;4.05;3.60;;;24.50;40.30;;;;;;5065174;28;45498;-74
2023/06/09 03:32:47;;;;;;;5.10;3.13;;;24.50;40.30;;;;;;5066066;28;45444;-73
2023/06/09 03:35:15;;;;;;;3.33;2.90;;;24.50;40.20;;;;;;5066259;28;45520;-73
2023/06/09 03:37:42;;;;;;;3.45;3.00;;;24.50;40.30;;;;;;5066000;28;45509;-73
2023/06/09 03:40:10;;;;;;;3.33;3.03;;;24.50;40.30;;;;;;5065777;28;45257;-73
2023/06/09 03:42:37;;;;;;;3.35;3.05;;;24.50;40.30;;;;;;5066121;28;45343;-73
2023/06/09 03:45:06;;;;;;;2.70;2.50;;;24.50;40.20;;;;;;5065922;28;45532;-73
2023/06/09 03:47:33;;;;;;;3.33;3.03;;;24.50;40.20;;;;;;5066320;28;45315;-73
2023/06/09 03:50:00;;;;;;;3.13;2.83;;;24.50;40.30;;;;;;5065654;28;46385;-73
2023/06/09 03:52:27;;;;;;;3.63;3.33;;;24.50;40.30;;;;;;5065575;28;45304;-73
2023/06/09 03:54:54;;;;;;;3.17;2.95;;;24.40;40.20;;;;;;5065892;28;45309;-73
2023/06/09 03:57:21;;;;;;;2.95;2.75;;;24.40;40.20;;;;;;5065903;28;45292;-73
2023/06/09 03:59:48;;;;;;;4.00;2.90;;;24.40;40.20;;;;;;5065523;28;47001;-74
2023/06/09 04:02:16;;;;;;;3.88;2.92;;;24.40;40.30;;;;;;5065466;28;45328;-73
2023/06/09 04:04:43;;;;;;;3.22;2.92;;;24.40;40.20;;;;;;5065809;28;45474;-73
2023/06/09 04:07:11;;;;;;;3.20;2.90;;;24.40;40.30;;;;;;5065713;28;45497;-73
2023/06/09 04:09:38;;;;;;;3.78;3.17;;;24.40;40.30;;;;;;5065345;28;45308;-73
2023/06/09 04:12:05;;;;;;;3.15;2.85;;;24.40;40.30;;;;;;5065632;28;45590;-73
2023/06/09 04:14:32;;;;;;;6.43;3.30;;;24.40;40.30;;;;;;5065601;28;45303;-73
2023/06/09 04:16:59;;;;;;;4.57;2.90;;;24.40;40.30;;;;;;5065557;28;45387;-73
2023/06/09 04:19:27;;;;;;;3.83;3.10;;;24.40;40.30;;;;;;5065386;28;46630;-73
2023/06/09 04:21:55;;;;;;;3.20;2.92;;;24.40;40.30;;;;;;5065339;28;45254;-73
2023/06/09 04:24:22;;;;;;;3.38;3.08;;;24.30;40.20;;;;;;5065472;28;45373;-73
2023/06/09 04:26:49;;;;;;;4.30;3.35;;;24.40;40.30;;;;;;5065639;28;45478;-73
2023/06/09 04:29:17;;;;;;;2.97;2.67;;;24.30;40.20;;;;;;5065001;28;46407;-75
2023/06/09 04:31:44;;;;;;;2.72;2.53;;;24.30;40.20;;;;;;5065269;28;45297;-74
2023/06/09 04:34:12;;;;;;;3.08;2.80;;;24.30;40.20;;;;;;5065345;28;45304;-73
2023/06/09 04:36:40;;;;;;;3.45;2.80;;;24.30;40.20;;;;;;5065504;28;45315;-73
2023/06/09 04:39:08;;;;;;;3.50;3.10;;;24.30;40.30;;;;;;5064989;28;46388;-73
2023/06/09 04:41:35;;;;;;;2.92;2.72;;;24.30;40.20;;;;;;5064881;28;45263;-73
2023/06/09 04:44:04;;;;;;;3.40;3.10;;;24.30;40.20;;;;;;5065173;28;45378;-73
2023/06/09 04:46:31;;;;;;;3.42;2.90;;;24.30;40.20;;;;;;5065338;28;45467;-73
2023/06/09 04:48:59;;;;;;;3.58;2.75;;;24.30;40.20;;;;;;5064812;28;45273;-73
2023/06/09 04:51:27;;;;;;;3.38;3.00;;;24.30;40.20;;;;;;5065009;28;45241;-73
2023/06/09 04:53:55;;;;;;;3.00;2.70;;;24.30;40.20;;;;;;5065188;28;45447;-73
2023/06/09 04:56:23;;;;;;;3.22;2.65;;;24.30;40.20;;;;;;5065243;28;45309;-73
2023/06/09 04:58:49;;;;;;;3.10;2.85;;;24.30;40.20;;;;;;5064645;28;45328;-73
2023/06/09 05:01:16;;;;;;;3.38;3.00;;;24.30;40.20;;;;;;5064798;28;45257;-74
2023/06/09 05:03:45;;;;;;;3.00;2.70;;;24.30;40.20;;;;;;5064646;28;45431;-74
2023/06/09 05:06:12;;;;;;;4.13;2.80;;;24.30;40.20;;;;;;5065098;28;45420;-74
2023/06/09 05:08:39;;;;;;;3.30;3.00;;;24.30;40.30;;;;;;5064617;28;45338;-74
2023/06/09 05:11:07;;;;;;;2.90;2.55;;;24.30;40.30;;;;;;5064865;28;45274;-74
2023/06/09 05:13:34;;;;;;;3.05;2.72;;;24.30;40.20;;;;;;5064809;28;45405;-74
2023/06/09 05:16:01;;;;;;;3.83;2.60;;;24.30;40.30;;;;;;5064955;28;45366;-67
2023/06/09 05:18:29;;;;;;;2.75;2.55;;;24.30;40.30;;;;;;5064340;28;45598;-67
2023/06/09 05:20:56;;;;;;;3.22;2.63;;;24.30;40.30;;;;;;5064625;28;45273;-67
2023/06/09 05:23:22;;;;;;;3.22;2.70;;;24.30;40.30;;;;;;5064727;28;45270;-67
2023/06/09 05:25:50;;;;;;;4.18;2.80;;;24.30;40.30;;;;;;5064901;28;45376;-67
2023/06/09 05:28:18;;;;;;;3.00;2.80;;;24.30;40.30;;;;;;5064243;28;45343;-67
2023/06/09 05:30:45;;;;;;;3.45;2.75;;;24.30;40.30;;;;;;5064402;28;45267;-67
2023/06/09 05:33:12;;;;;;;3.10;2.80;;;24.30;40.30;;;;;;5064555;28;45293;-68
2023/06/09 05:35:39;;;;;;;3.03;2.70;;;24.20;40.30;;;;;;5064832;28;45327;-67
2023/06/09 05:38:06;;;;;;;3.55;3.20;;;24.20;40.30;;;;;;5063984;28;46441;-68
2023/06/09 05:40:32;;;;;;;3.00;2.70;;;24.20;40.50;;;;;;5064334;28;45383;-68
2023/06/09 05:43:00;;;;;;;3.38;2.75;;;24.20;40.50;;;;;;5064432;28;45391;-67
2023/06/09 05:45:28;;;;;;;3.88;3.05;;;24.20;40.50;;;;;;5064504;28;45281;-68
2023/06/09 05:47:55;;;;;;;3.20;2.90;;;24.30;40.50;;;;;;5064371;28;47935;-67
2023/06/09 05:50:22;;;;;;;3.17;2.50;;;24.20;40.50;;;;;;5064209;28;45371;-68
2023/06/09 05:52:49;;;;;;;3.35;3.05;;;24.20;40.50;;;;;;5065429;28;45262;-67
2023/06/09 05:55:16;;;;;;;3.00;2.78;;;24.30;40.50;;;;;;5067968;28;45230;-68
2023/06/09 05:57:44;;;;;;;4.07;2.80;;;24.30;40.50;;;;;;5067325;28;46699;-66
2023/06/09 06:00:12;;;;;;;2.65;2.45;;;24.30;40.50;;;;;;5067526;28;45537;-66
2023/06/09 06:02:42;;;;;;;3.47;2.83;;;24.30;40.50;;;;;;5067540;28;45324;-67
2023/06/09 06:05:10;;;;;;;4.03;2.72;;;24.30;40.50;;;;;;5067894;28;45245;-67
2023/06/09 06:07:37;;;;;;;3.50;2.97;;;24.30;40.60;;;;;;5067170;28;46495;-67
2023/06/09 06:10:04;;;;;;;3.33;3.00;;;24.30;40.60;;;;;;5067400;28;45312;-68
2023/06/09 06:12:31;;;;;;;2.67;2.45;;;24.30;40.60;;;;;;5067862;28;45411;-67
2023/06/09 06:14:58;;;;;;;4.20;2.72;;;24.30;41.20;;;;;;5067606;28;45323;-67
2023/06/09 06:17:25;;;;;;;3.03;2.70;;;24.30;40.60;;;;;;5067084;28;46374;-67
2023/06/09 06:19:54;;;;;;;3.70;2.70;;;24.30;40.60;;;;;;5067108;28;45375;-67
2023/06/09 06:22:21;;;;;;;2.92;2.63;;;24.30;40.60;;;;;;5067432;28;45317;-67
2023/06/09 06:24:48;;;;;;;3.00;2.70;;;24.30;40.60;;;;;;5067375;28;45414;-67
2023/06/09 06:27:15;;;;;;;3.97;2.90;;;24.30;40.60;;;;;;5066946;28;46612;-68
2023/06/09 06:29:41;;;;;;;3.47;2.70;;;24.40;40.70;;;;;;5066874;28;45325;-67
2023/06/09 06:32:09;;;;;;;2.80;2.60;;;24.40;40.60;;;;;;5067342;28;45299;-67
2023/06/09 06:34:36;;;;;;;3.40;3.10;;;24.40;40.60;;;;;;5067347;28;45405;-67
2023/06/09 06:37:04;;;;;;;3.10;2.80;;;24.40;40.60;;;;;;5066848;28;45295;-67
2023/06/09 06:39:31;;;;;;;3.33;3.03;;;24.40;40.60;;;;;;5066705;28;45453;-68
2023/06/09 06:41:58;;;;;;;2.80;2.60;;;24.40;40.60;;;;;;5067022;28;45493;-68
2023/06/09 06:44:25;;;;;;;2.90;2.70;;;24.40;40.60;;;;;;5067205;28;45422;-67
2023/06/09 06:46:51;;;;;;;3.05;2.78;;;24.40;40.60;;;;;;5066894;28;47927;-68
2023/06/09 06:49:18;;;;;;;3.05;2.85;;;24.50;40.60;;;;;;5066738;28;45311;-67
2023/06/09 06:51:45;;;;;;;3.50;2.65;;;24.50;40.60;;;;;;5066959;28;45293;-67
2023/06/09 06:54:15;;;;;;;3.78;2.47;;;24.50;40.60;;;;;;5066896;28;45400;-68
2023/06/09 06:56:42;;;;;;;4.35;2.67;;;24.50;40.60;;;;;;5066789;28;47249;-67
2023/06/09 06:59:09;;;;;;;3.22;2.58;;;24.50;40.60;;;;;;5066538;28;45340;-68
2023/06/09 07:01:37;;;;;;;3.13;2.88;;;24.50;40.50;;;;;;5066874;28;45386;-68
2023/06/09 07:04:04;;;;;;;2.83;2.53;;;24.50;41.10;;;;;;5065248;28;45541;-67
2023/06/09 07:06:32;;;;;;;2.72;2.53;;;24.60;40.50;;;;;;5066427;28;45289;-67
2023/06/09 07:08:59;;;;;;;3.15;2.80;;;24.60;40.50;;;;;;5066517;28;45320;-68
2023/06/09 07:11:28;;;;;;;2.80;2.60;;;24.60;40.50;;;;;;5066633;28;45322;-68
2023/06/09 07:13:54;;;;;;;2.97;2.78;;;24.60;40.50;;;;;;5066717;28;45434;-69
2023/06/09 07:16:21;;;;;;;3.03;2.72;;;24.60;40.50;;;;;;5066300;28;46305;-69
2023/06/09 07:18:48;;;;;;;2.90;2.58;;;24.60;40.50;;;;;;5066129;28;45269;-69
2023/06/09 07:21:15;;;;;;;2.97;2.75;;;24.70;40.50;;;;;;5066376;28;45306;-68
2023/06/09 07:23:42;;;;;;;3.05;2.75;;;24.70;40.50;;;;;;5066542;28;45454;-69
2023/06/09 07:26:10;;;;;;;2.90;2.70;;;24.70;40.50;;;;;;5066154;28;45447;-69
2023/06/09 07:28:38;;;;;;;3.10;2.88;;;24.70;40.50;;;;;;5066261;28;45371;-67
2023/06/09 07:31:05;;;;;;;3.15;2.88;;;24.70;40.50;;;;;;5066191;28;45273;-68
2023/06/09 07:33:32;;;;;;;2.67;2.47;;;24.70;40.40;;;;;;5066419;28;45432;-68
2023/06/09 07:35:59;;;;;;;2.80;2.60;;;24.70;40.30;;;;;;5066075;28;46686;-68
2023/06/09 07:38:27;;;;;;;2.65;2.45;;;24.70;40.40;;;;;;5065807;28;45289;-68
2023/06/09 07:40:54;;;;;;;3.00;2.80;;;24.80;40.30;;;;;;5066191;28;45252;-69
2023/06/09 07:43:22;;;;;;;2.92;2.72;;;24.80;40.30;;;;;;5066229;28;45414;-69
2023/06/09 07:45:50;;;;;;;2.97;2.58;;;24.80;40.30;;;;;;5065780;28;46708;-68
2023/06/09 07:48:17;;;;;;;2.60;2.40;;;24.80;40.40;;;;;;5065696;28;45332;-68
2023/06/09 07:50:45;;;;;;;2.92;2.67;;;24.90;40.40;;;;;;5065906;28;45357;-68
2023/06/09 07:53:12;;;;;;;4.25;2.72;;;24.90;40.40;;;;;;5066037;28;45569;-68
2023/06/09 07:55:39;;;;;;;2.60;2.40;;;24.90;40.40;;;;;;5065501;28;45578;-69
2023/06/09 07:58:06;;;;;;;3.30;3.00;;;24.90;40.30;;;;;;5065554;28;45442;-69
2023/06/09 08:00:32;;;;;;;2.83;2.63;;;25.00;40.50;;;;;;5065658;28;45283;-69
2023/06/09 08:03:04;;;;;;;3.20;2.90;;;25.00;40.40;;;;;;5065663;28;45308;-70
2023/06/09 08:05:31;;;;;;;2.95;2.65;;;25.00;41.00;;;;;;5065269;28;46471;-70
2023/06/09 08:07:58;;;;;;;2.60;2.40;;;25.00;40.40;;;;;;5065318;28;45332;-70
2023/06/09 08:10:25;;;;;;;2.50;2.30;;;25.00;40.30;;;;;;5065611;28;45269;-70
2023/06/09 08:12:52;;;;;;;2.70;2.50;;;25.10;40.40;;;;;;5065672;28;45404;-69
2023/06/09 08:15:20;;;;;;;2.60;2.40;;;25.10;40.30;;;;;;5064846;28;45372;-69
2023/06/09 08:17:47;;;;;;;2.97;2.67;;;25.10;40.30;;;;;;5065304;28;45352;-69
2023/06/09 08:20:15;;;;;;;2.83;2.63;;;25.20;40.30;;;;;;5065154;28;45273;-69
2023/06/09 08:22:42;;;;;;;2.70;2.50;;;25.20;40.30;;;;;;5064274;28;45430;-69
2023/06/09 08:25:11;;;;;;;2.72;2.53;;;25.20;40.30;;;;;;5062178;28;46374;-69
2023/06/09 08:27:38;;;;;;;4.82;2.88;;;25.20;40.30;;;;;;5065222;28;45323;-69
2023/06/09 08:30:07;;;;;;;2.78;2.58;;;25.20;40.20;;;;;;5065275;28;45273;-69
2023/06/09 08:32:34;;;;;;;2.90;2.65;;;25.30;40.30;;;;;;5063988;28;45558;-69
2023/06/09 08:35:03;;;;;;;3.10;2.80;;;25.30;40.40;;;;;;5062511;28;46417;-70
2023/06/09 08:37:32;;;;;;;2.50;2.30;;;25.30;40.30;;;;;;5064987;28;45343;-69
2023/06/09 08:40:00;;;;;;;2.80;2.60;;;25.40;40.40;;;;;;5065073;28;45410;-70
2023/06/09 08:42:27;;;;;;;2.83;2.63;;;25.40;40.40;;;;;;5064326;28;45419;-69
2023/06/09 08:44:59;;;;;;;2.65;2.45;;;25.40;40.40;;;;;;5049468;28;45537;-69
2023/06/09 08:47:26;;;;;;;3.65;2.85;;;25.40;40.40;;;;;;5055896;28;45532;-68
2023/06/09 08:49:57;;;;;;;10.35;2.75;;;25.50;40.40;;;;;;5059207;28;45496;-69
2023/06/09 08:52:24;;;;;;;2.90;2.70;;;25.50;40.40;;;;;;5065211;28;45343;-68
2023/06/09 08:54:53;;;;;;;3.03;2.80;;;25.50;40.40;;;;;;5064653;28;45277;-69
2023/06/09 08:57:20;;;;;;;2.55;2.35;;;25.60;40.50;;;;;;5064581;28;45315;-68
2023/06/09 08:59:48;;;;;;;3.08;2.80;;;25.60;40.50;;;;;;5057938;28;45517;-69
2023/06/09 09:02:15;;;;;;;3.05;2.60;;;25.60;40.40;;;;;;5064652;28;45342;-69
2023/06/09 09:04:41;;;;;;;3.05;2.75;;;25.60;40.50;;;;;;5064704;28;47422;-69
2023/06/09 09:07:09;;;;;;;3.15;2.85;;;25.60;40.40;;;;;;5064779;28;45308;-68
2023/06/09 09:09:36;;;;;;;3.22;2.70;;;25.70;40.40;;;;;;5064631;28;45267;-69
2023/06/09 09:12:05;;;;;;;3.33;2.92;;;25.70;40.40;;;;;;5064816;28;45297;-69
2023/06/09 09:14:32;;;;;;;3.15;2.85;;;25.70;40.40;;;;;;5064740;28;46330;-69
2023/06/09 09:16:59;;;;;;;3.97;2.67;;;25.80;40.50;;;;;;5064646;28;45328;-68
2023/06/09 09:19:26;;;;;;;3.17;2.88;;;25.80;40.40;;;;;;5064523;28;45419;-69
2023/06/09 09:21:55;;;;;;;2.78;2.58;;;25.80;40.50;;;;;;5064771;28;45351;-69
2023/06/09 09:24:21;;;;;;;3.83;3.00;;;25.80;40.50;;;;;;5064104;28;45577;-70
2023/06/09 09:26:48;;;;;;;5.38;2.80;;;25.90;40.40;;;;;;5064493;28;45236;-70
2023/06/09 09:29:16;;;;;;;3.58;3.17;;;25.90;40.40;;;;;;5067940;28;45262;-69
2023/06/09 09:31:43;;;;;;;4.82;3.10;;;25.90;40.30;;;;;;5068453;28;45443;-68
2023/06/09 09:34:13;;;;;;;3.10;2.80;;;25.90;40.40;;;;;;5067787;28;45336;-69
2023/06/09 09:36:43;;;;;;;3.22;2.90;;;26.00;40.40;;;;;;5067773;28;45277;-69
2023/06/09 09:39:09;;;;;;;3.97;2.95;;;26.00;40.40;;;;;;5067729;28;45338;-69
2023/06/09 09:41:36;;;;;;;3.30;3.00;;;26.00;40.50;;;;;;5068112;28;45287;-69
2023/06/09 09:44:03;;;;;;;3.92;3.00;;;26.00;40.40;;;;;;5067793;28;47639;-69
2023/06/09 09:46:37;;;;;;;3.08;2.72;;;26.10;40.50;;;;;;5067600;28;45346;-70
2023/06/09 09:49:07;;;;;;;3.40;3.10;;;26.10;40.30;;;;;;5067675;28;45335;-70
2023/06/09 09:51:34;;;;;;;4.68;3.08;;;26.10;40.30;;;;;;5068068;28;45407;-69
2023/06/09 09:54:01;;;;;;;2.95;2.58;;;26.20;40.40;;;;;;5067337;28;45445;-70
2023/06/09 09:56:28;;;;;;;3.38;3.08;;;26.20;40.40;;;;;;5067765;28;45345;-68
2023/06/09 09:58:55;;;;;;;3.30;3.03;;;26.30;40.40;;;;;;5067390;28;45397;-69
2023/06/09 10:01:23;;;;;;;4.03;3.05;;;26.20;40.30;;;;;;5067244;28;45495;-69
2023/06/09 10:03:53;;;;;;;3.67;3.10;;;26.30;40.30;;;;;;5067066;28;45618;-69
2023/06/09 10:06:20;;;;;;;4.30;3.13;;;26.40;40.40;;;;;;5067509;28;45353;-69
2023/06/09 10:08:47;;;;;;;3.40;3.10;;;26.40;40.30;;;;;;5067129;28;45341;-69
2023/06/09 10:11:14;;;;;;;3.50;3.20;;;26.40;40.30;;;;;;5067474;28;45479;-69
2023/06/09 10:13:41;;;;;;;3.35;3.05;;;26.50;40.30;;;;;;5067320;28;45457;-69
2023/06/09 10:16:08;;;;;;;2.95;2.75;;;26.50;40.30;;;;;;5067219;28;45357;-69
2023/06/09 10:18:36;;;;;;;3.40;3.10;;;26.50;40.20;;;;;;5067237;28;45355;-70
2023/06/09 10:21:04;;;;;;;3.00;2.80;;;26.50;40.20;;;;;;5067340;28;45532;-69
2023/06/09 10:23:31;;;;;;;3.33;3.03;;;26.50;40.20;;;;;;5066945;28;46394;-69
2023/06/09 10:25:58;;;;;;;3.45;3.15;;;26.60;40.20;;;;;;5066844;28;45301;-69
2023/06/09 10:28:25;;;;;;;2.70;2.50;;;26.60;40.20;;;;;;5064169;28;45440;-69
2023/06/09 10:30:53;;;;;;;3.58;3.17;;;26.60;40.10;;;;;;5067878;28;45562;-68
2023/06/09 10:33:21;;;;;;;3.65;3.22;;;26.70;40.10;;;;;;5067201;28;46738;-69
2023/06/09 10:35:49;;;;;;;3.33;3.03;;;26.80;40.00;;;;;;5072652;27;45291;-69
2023/06/09 10:38:29;;;;;;;3.45;2.75;;;26.80;40.10;;;;;;5066411;28;45379;-70
2023/06/09 10:41:08;;;;;;;3.03;2.83;;;26.80;40.10;;;;;;5065161;28;45268;-68
2023/06/09 10:43:48;;;;;;;3.78;2.90;;;26.80;40.10;;;;;;5063343;28;47301;-69
2023/06/09 10:46:14;;;;;;;3.30;3.00;;;26.90;40.40;;;;;;5073665;27;45449;-69
2023/06/09 10:48:42;;;;;;;3.05;2.80;;;26.90;40.30;;;;;;5066432;28;45300;-69
2023/06/09 10:51:37;;;;;;;3.60;3.10;;;27.00;40.30;;;;;;5066448;28;45185;-70
2023/06/09 10:54:22;;;;;;;4.05;3.33;;;27.10;40.30;;;;;;5066336;28;46357;-70
2023/06/09 10:56:53;;;;;;;3.30;2.90;;;27.10;40.20;;;;;;5052343;28;45305;-70
2023/06/09 11:00:12;;;;;;;3.63;3.03;;;27.20;40.20;;;;;;5066374;28;45327;-69
2023/06/09 11:02:40;;;;;;;3.08;2.80;;;27.20;40.20;;;;;;5052313;28;45372;-69
2023/06/09 11:05:09;;;;;;;4.53;3.15;;;27.30;40.10;;;;;;5065902;28;45460;-69
2023/06/09 11:08:03;;;;;;;3.13;2.88;;;27.30;40.00;;;;;;5065625;28;45457;-69
2023/06/09 11:10:32;;;;;;;3.50;3.20;;;27.40;40.00;;;;;;5059841;28;45383;-71
2023/06/09 11:12:59;;;;;;;5.15;3.05;;;27.40;40.00;;;;;;5066093;28;45388;-70
2023/06/09 11:16:01;;;;;;;4.35;3.30;;;27.50;39.90;;;;;;5065806;28;46649;-70
2023/06/09 11:18:28;;;;;;;3.13;2.85;;;27.50;39.90;;;;;;5065641;28;45414;-71
2023/06/09 11:21:16;;;;;;;3.83;3.20;;;27.50;39.80;;;;;;5065906;28;45289;-69
2023/06/09 11:24:03;;;;;;;3.03;2.83;;;27.60;39.90;;;;;;5061909;28;45309;-68
2023/06/09 11:26:32;;;;;;;3.45;3.15;;;27.70;40.50;;;;;;5065215;28;45309;-68
2023/06/09 11:29:00;;;;;;;4.22;2.90;;;27.70;39.80;;;;;;5065387;28;45433;-68
2023/06/09 11:31:27;;;;;;;5.32;3.40;;;27.80;39.70;;;;;;5065880;28;45261;-68
2023/06/09 11:33:55;;;;;;;3.40;2.72;;;27.80;39.70;;;;;;5065756;28;45423;-67
2023/06/09 11:36:25;;;;;;;4.45;3.38;;;27.90;39.70;;;;;;5064974;28;46395;-68
2023/06/09 11:38:52;;;;;;;3.78;3.25;;;28.00;39.60;;;;;;5065046;28;45301;-68
2023/06/09 11:41:24;;;;;;;3.13;2.83;;;28.00;40.20;;;;;;5064774;28;45485;-69
2023/06/09 11:43:56;;;;;;;3.40;3.10;;;28.00;39.60;;;;;;5062232;28;45621;-68
2023/06/09 11:46:23;;;;;;;3.40;3.10;;;28.10;39.70;;;;;;5064173;28;45498;-69
2023/06/09 11:49:06;;;;;;;3.50;3.20;;;28.10;39.60;;;;;;5065422;28;45345;-69
2023/06/09 11:52:09;;;;;;;3.58;3.28;;;28.20;39.60;;;;;;5060504;28;45428;-69
2023/06/09 11:54:46;;;;;;;3.60;3.30;;;28.30;39.60;;;;;;5053090;28;45526;-68
2023/06/09 11:57:19;;;;;;;4.30;3.10;;;28.40;39.60;;;;;;5065289;28;46303;-69
2023/06/09 11:59:47;;;;;;;3.63;3.22;;;28.40;39.40;;;;;;5064882;28;45415;-68
2023/06/09 12:02:16;;;;;;;3.40;3.10;;;28.50;39.40;;;;;;5064588;28;45409;-68
2023/06/09 12:04:45;;;;;;;3.80;3.42;;;28.50;39.30;;;;;;5065776;28;45398;-68
2023/06/09 12:07:13;;;;;;;3.60;3.30;;;28.60;39.20;;;;;;5064887;28;45518;-68
2023/06/09 12:09:41;;;;;;;3.72;3.25;;;28.60;39.10;;;;;;5065090;28;45261;-71
2023/06/09 12:12:08;;;;;;;3.35;3.05;;;28.70;39.10;;;;;;5065153;28;45333;-69
2023/06/09 12:14:37;;;;;;;3.67;3.35;;;28.80;39.10;;;;;;5065144;28;45366;-70
2023/06/09 12:17:06;;;;;;;3.47;3.22;;;28.80;39.00;;;;;;5064110;28;45460;-70
2023/06/09 12:19:33;;;;;;;3.70;3.40;;;28.90;39.00;;;;;;5064869;28;45905;-70
2023/06/09 12:22:00;;;;;;;4.00;3.58;;;28.90;38.90;;;;;;5065097;28;45466;-70
2023/06/09 12:24:27;;;;;;;3.65;3.35;;;29.00;38.90;;;;;;5078877;27;45624;-69
2023/06/09 12:26:55;;;;;;;4.07;3.22;;;29.00;38.80;;;;;;5064951;28;45776;-69
2023/06/09 12:29:26;;;;;;;3.40;3.10;;;29.10;38.80;;;;;;5064422;28;45364;-68
2023/06/09 12:31:53;;;;;;;3.40;3.10;;;29.20;38.70;;;;;;5064472;28;45483;-70
2023/06/09 12:34:25;;;;;;;3.60;3.30;;;29.20;38.60;;;;;;5065324;28;45625;-70
2023/06/09 12:36:52;;;;;;;3.65;3.35;;;29.30;38.60;;;;;;5064763;28;46733;-68
2023/06/09 12:39:19;;;;;;;3.42;3.13;;;29.40;38.60;;;;;;5064743;28;45288;-69
2023/06/09 12:41:46;;;;;;;3.60;3.30;;;29.40;38.40;;;;;;5064672;28;45443;-69
2023/06/09 12:44:20;;;;;;;3.45;3.15;;;29.50;38.40;;;;;;5064847;28;45423;-69
2023/06/09 12:46:54;;;;;;;3.58;3.28;;;29.50;38.30;;;;;;5061576;28;46394;-68
2023/06/09 12:49:29;;;;;;;3.30;3.00;;;29.60;38.30;;;;;;5064574;28;45324;-68
2023/06/09 12:51:56;;;;;;;3.97;3.10;;;29.60;37.90;;;;;;5064407;28;45328;-69
2023/06/09 12:54:23;;;;;;;3.80;3.40;;;29.60;38.00;;;;;;5064866;28;45526;-70